sensor_id;sensor_type;location;lat;lon;timestamp;P1;durP1;ratioP1;P2;durP2;ratioP2
13975;SDS011;7062;49.792;9.946;2022-07-23T00:00:07;6.50;;;5.90;;
13975;SDS011;7062;49.792;9.946;2022-07-23T00:02:33;8.00;;;5.70;;
13975;SDS011;7062;49.792;9.946;2022-07-23T00:04:59;7.17;;;5.80;;
13975;SDS011;7062;49.792;9.946;2022-07-23T00:07:25;6.90;;;6.30;;
13975;SDS011;7062;49.792;9.946;2022-07-23T00:09:50;8.27;;;7.03;;
13975;SDS011;7062;49.792;9.946;2022-07-23T00:12:16;10.70;;;7.43;;
13975;SDS011;7062;49.792;9.946;2022-07-23T00:14:42;7.77;;;7.00;;
13975;SDS011;7062;49.792;9.946;2022-07-23T00:17:07;9.30;;;6.00;;
13975;SDS011;7062;49.792;9.946;2022-07-23T00:19:33;7.17;;;5.93;;
13975;SDS011;7062;49.792;9.946;2022-07-23T00:21:58;9.40;;;6.43;;
13975;SDS011;7062;49.792;9.946;2022-07-23T00:24:24;7.10;;;5.53;;
13975;SDS011;7062;49.792;9.946;2022-07-23T00:26:49;7.23;;;6.57;;
13975;SDS011;7062;49.792;9.946;2022-07-23T00:29:15;6.87;;;6.23;;
13975;SDS011;7062;49.792;9.946;2022-07-23T00:31:41;7.43;;;6.73;;
13975;SDS011;7062;49.792;9.946;2022-07-23T00:34:06;6.77;;;6.13;;
13975;SDS011;7062;49.792;9.946;2022-07-23T00:36:32;6.73;;;5.80;;
13975;SDS011;7062;49.792;9.946;2022-07-23T00:38:58;6.20;;;5.70;;
13975;SDS011;7062;49.792;9.946;2022-07-23T00:41:23;8.13;;;6.40;;
13975;SDS011;7062;49.792;9.946;2022-07-23T00:43:49;8.80;;;6.73;;
13975;SDS011;7062;49.792;9.946;2022-07-23T00:46:19;8.00;;;6.17;;
13975;SDS011;7062;49.792;9.946;2022-07-23T00:48:48;7.07;;;5.70;;
13975;SDS011;7062;49.792;9.946;2022-07-23T00:51:16;7.03;;;5.80;;
13975;SDS011;7062;49.792;9.946;2022-07-23T00:53:43;7.50;;;6.60;;
13975;SDS011;7062;49.792;9.946;2022-07-23T00:56:10;8.77;;;7.27;;
13975;SDS011;7062;49.792;9.946;2022-07-23T00:58:36;7.13;;;6.43;;
13975;SDS011;7062;49.792;9.946;2022-07-23T01:01:03;6.80;;;6.10;;
13975;SDS011;7062;49.792;9.946;2022-07-23T01:03:29;6.83;;;6.03;;
13975;SDS011;7062;49.792;9.946;2022-07-23T01:05:55;7.20;;;6.50;;
13975;SDS011;7062;49.792;9.946;2022-07-23T01:08:21;7.90;;;6.40;;
13975;SDS011;7062;49.792;9.946;2022-07-23T01:10:47;6.70;;;6.10;;
13975;SDS011;7062;49.792;9.946;2022-07-23T01:13:13;8.07;;;7.20;;
13975;SDS011;7062;49.792;9.946;2022-07-23T01:15:39;6.50;;;5.90;;
13975;SDS011;7062;49.792;9.946;2022-07-23T01:18:05;7.07;;;6.37;;
13975;SDS011;7062;49.792;9.946;2022-07-23T01:20:32;6.90;;;6.20;;
13975;SDS011;7062;49.792;9.946;2022-07-23T01:22:58;6.93;;;6.33;;
13975;SDS011;7062;49.792;9.946;2022-07-23T01:25:25;7.20;;;6.53;;
13975;SDS011;7062;49.792;9.946;2022-07-23T01:27:51;8.10;;;5.80;;
13975;SDS011;7062;49.792;9.946;2022-07-23T01:30:18;7.27;;;6.57;;
13975;SDS011;7062;49.792;9.946;2022-07-23T01:32:44;6.47;;;5.87;;
13975;SDS011;7062;49.792;9.946;2022-07-23T01:35:10;9.80;;;6.60;;
13975;SDS011;7062;49.792;9.946;2022-07-23T01:37:36;6.60;;;6.00;;
13975;SDS011;7062;49.792;9.946;2022-07-23T01:40:03;8.23;;;5.97;;
13975;SDS011;7062;49.792;9.946;2022-07-23T01:42:29;6.67;;;6.13;;
13975;SDS011;7062;49.792;9.946;2022-07-23T01:44:55;8.87;;;7.27;;
13975;SDS011;7062;49.792;9.946;2022-07-23T01:47:20;8.63;;;6.37;;
13975;SDS011;7062;49.792;9.946;2022-07-23T01:49:46;6.83;;;6.23;;
13975;SDS011;7062;49.792;9.946;2022-07-23T01:52:12;7.83;;;7.13;;
13975;SDS011;7062;49.792;9.946;2022-07-23T01:54:38;7.07;;;6.27;;
13975;SDS011;7062;49.792;9.946;2022-07-23T01:57:04;8.33;;;6.33;;
13975;SDS011;7062;49.792;9.946;2022-07-23T01:59:31;8.37;;;6.30;;
13975;SDS011;7062;49.792;9.946;2022-07-23T02:01:56;7.40;;;6.70;;
13975;SDS011;7062;49.792;9.946;2022-07-23T02:04:22;7.30;;;6.50;;
13975;SDS011;7062;49.792;9.946;2022-07-23T02:06:49;8.03;;;6.33;;
13975;SDS011;7062;49.792;9.946;2022-07-23T02:09:15;6.80;;;6.20;;
13975;SDS011;7062;49.792;9.946;2022-07-23T02:11:41;7.30;;;6.67;;
13975;SDS011;7062;49.792;9.946;2022-07-23T02:14:07;9.67;;;7.47;;
13975;SDS011;7062;49.792;9.946;2022-07-23T02:16:33;6.90;;;6.30;;
13975;SDS011;7062;49.792;9.946;2022-07-23T02:18:58;6.90;;;6.20;;
13975;SDS011;7062;49.792;9.946;2022-07-23T02:21:24;11.47;;;6.90;;
13975;SDS011;7062;49.792;9.946;2022-07-23T02:23:49;9.43;;;7.17;;
13975;SDS011;7062;49.792;9.946;2022-07-23T02:26:15;6.47;;;5.83;;
13975;SDS011;7062;49.792;9.946;2022-07-23T02:28:41;8.13;;;7.33;;
13975;SDS011;7062;49.792;9.946;2022-07-23T02:31:07;7.43;;;6.57;;
13975;SDS011;7062;49.792;9.946;2022-07-23T02:33:33;7.23;;;6.53;;
13975;SDS011;7062;49.792;9.946;2022-07-23T02:35:58;7.47;;;6.57;;
13975;SDS011;7062;49.792;9.946;2022-07-23T02:38:24;9.57;;;6.67;;
13975;SDS011;7062;49.792;9.946;2022-07-23T02:40:51;7.70;;;5.83;;
13975;SDS011;7062;49.792;9.946;2022-07-23T02:43:17;7.33;;;6.27;;
13975;SDS011;7062;49.792;9.946;2022-07-23T02:45:42;7.23;;;6.53;;
13975;SDS011;7062;49.792;9.946;2022-07-23T02:48:08;7.57;;;6.87;;
13975;SDS011;7062;49.792;9.946;2022-07-23T02:50:33;9.37;;;7.03;;
13975;SDS011;7062;49.792;9.946;2022-07-23T02:52:59;7.27;;;6.57;;
13975;SDS011;7062;49.792;9.946;2022-07-23T02:55:25;9.90;;;7.53;;
13975;SDS011;7062;49.792;9.946;2022-07-23T02:57:51;7.10;;;6.47;;
13975;SDS011;7062;49.792;9.946;2022-07-23T03:00:17;7.97;;;7.10;;
13975;SDS011;7062;49.792;9.946;2022-07-23T03:02:42;8.13;;;7.40;;
13975;SDS011;7062;49.792;9.946;2022-07-23T03:05:08;7.87;;;7.17;;
13975;SDS011;7062;49.792;9.946;2022-07-23T03:07:34;9.67;;;7.27;;
13975;SDS011;7062;49.792;9.946;2022-07-23T03:10:00;7.87;;;7.07;;
13975;SDS011;7062;49.792;9.946;2022-07-23T03:12:25;9.50;;;7.43;;
13975;SDS011;7062;49.792;9.946;2022-07-23T03:14:51;10.67;;;7.17;;
13975;SDS011;7062;49.792;9.946;2022-07-23T03:17:16;7.50;;;6.80;;
13975;SDS011;7062;49.792;9.946;2022-07-23T03:19:42;7.63;;;6.93;;
13975;SDS011;7062;49.792;9.946;2022-07-23T03:22:08;9.23;;;7.33;;
13975;SDS011;7062;49.792;9.946;2022-07-23T03:24:33;8.13;;;7.13;;
13975;SDS011;7062;49.792;9.946;2022-07-23T03:27:18;7.13;;;6.47;;
13975;SDS011;7062;49.792;9.946;2022-07-23T03:29:43;10.00;;;7.20;;
13975;SDS011;7062;49.792;9.946;2022-07-23T03:32:09;7.33;;;6.63;;
13975;SDS011;7062;49.792;9.946;2022-07-23T03:34:34;7.53;;;6.70;;
13975;SDS011;7062;49.792;9.946;2022-07-23T03:37:00;7.60;;;6.90;;
13975;SDS011;7062;49.792;9.946;2022-07-23T03:39:26;7.83;;;7.03;;
13975;SDS011;7062;49.792;9.946;2022-07-23T03:41:52;11.30;;;8.47;;
13975;SDS011;7062;49.792;9.946;2022-07-23T03:44:18;8.23;;;7.43;;
13975;SDS011;7062;49.792;9.946;2022-07-23T03:46:44;7.93;;;7.07;;
13975;SDS011;7062;49.792;9.946;2022-07-23T03:49:09;9.87;;;7.57;;
13975;SDS011;7062;49.792;9.946;2022-07-23T03:51:35;8.40;;;7.60;;
13975;SDS011;7062;49.792;9.946;2022-07-23T03:54:00;7.43;;;6.50;;
13975;SDS011;7062;49.792;9.946;2022-07-23T03:56:26;7.20;;;6.60;;
13975;SDS011;7062;49.792;9.946;2022-07-23T03:58:51;8.27;;;7.30;;
13975;SDS011;7062;49.792;9.946;2022-07-23T04:01:17;6.90;;;6.30;;
13975;SDS011;7062;49.792;9.946;2022-07-23T04:03:43;8.53;;;7.27;;
13975;SDS011;7062;49.792;9.946;2022-07-23T04:06:08;8.03;;;6.10;;
13975;SDS011;7062;49.792;9.946;2022-07-23T04:08:34;7.30;;;6.57;;
13975;SDS011;7062;49.792;9.946;2022-07-23T04:10:59;8.27;;;6.80;;
13975;SDS011;7062;49.792;9.946;2022-07-23T04:13:25;7.00;;;6.37;;
13975;SDS011;7062;49.792;9.946;2022-07-23T04:15:50;7.27;;;6.57;;
13975;SDS011;7062;49.792;9.946;2022-07-23T04:18:16;6.83;;;6.20;;
13975;SDS011;7062;49.792;9.946;2022-07-23T04:20:45;7.20;;;5.93;;
13975;SDS011;7062;49.792;9.946;2022-07-23T04:23:11;8.03;;;5.97;;
13975;SDS011;7062;49.792;9.946;2022-07-23T04:25:37;6.67;;;6.07;;
13975;SDS011;7062;49.792;9.946;2022-07-23T04:28:03;7.60;;;6.80;;
13975;SDS011;7062;49.792;9.946;2022-07-23T04:30:29;6.93;;;6.30;;
13975;SDS011;7062;49.792;9.946;2022-07-23T04:32:54;6.70;;;6.10;;
13975;SDS011;7062;49.792;9.946;2022-07-23T04:35:20;7.17;;;6.47;;
13975;SDS011;7062;49.792;9.946;2022-07-23T04:37:45;8.43;;;6.83;;
13975;SDS011;7062;49.792;9.946;2022-07-23T04:40:12;7.90;;;6.07;;
13975;SDS011;7062;49.792;9.946;2022-07-23T04:42:38;7.70;;;6.50;;
13975;SDS011;7062;49.792;9.946;2022-07-23T04:45:04;9.40;;;6.50;;
13975;SDS011;7062;49.792;9.946;2022-07-23T04:47:30;8.07;;;7.27;;
13975;SDS011;7062;49.792;9.946;2022-07-23T04:49:56;8.00;;;7.20;;
13975;SDS011;7062;49.792;9.946;2022-07-23T04:52:22;9.40;;;6.53;;
13975;SDS011;7062;49.792;9.946;2022-07-23T04:54:48;6.80;;;6.10;;
13975;SDS011;7062;49.792;9.946;2022-07-23T04:57:14;7.87;;;7.13;;
13975;SDS011;7062;49.792;9.946;2022-07-23T04:59:40;7.97;;;7.17;;
13975;SDS011;7062;49.792;9.946;2022-07-23T05:02:06;10.77;;;6.70;;
13975;SDS011;7062;49.792;9.946;2022-07-23T05:04:31;8.90;;;6.30;;
13975;SDS011;7062;49.792;9.946;2022-07-23T05:06:57;7.23;;;6.50;;
13975;SDS011;7062;49.792;9.946;2022-07-23T05:09:23;7.83;;;7.13;;
13975;SDS011;7062;49.792;9.946;2022-07-23T05:11:49;10.33;;;6.80;;
13975;SDS011;7062;49.792;9.946;2022-07-23T05:14:14;6.53;;;6.03;;
13975;SDS011;7062;49.792;9.946;2022-07-23T05:16:40;6.70;;;6.10;;
13975;SDS011;7062;49.792;9.946;2022-07-23T05:19:06;6.10;;;5.67;;
13975;SDS011;7062;49.792;9.946;2022-07-23T05:21:32;6.97;;;6.27;;
13975;SDS011;7062;49.792;9.946;2022-07-23T05:23:58;6.23;;;5.67;;
13975;SDS011;7062;49.792;9.946;2022-07-23T05:26:24;9.17;;;6.50;;
13975;SDS011;7062;49.792;9.946;2022-07-23T05:28:50;6.70;;;6.20;;
13975;SDS011;7062;49.792;9.946;2022-07-23T05:31:16;6.50;;;5.83;;
13975;SDS011;7062;49.792;9.946;2022-07-23T05:33:41;8.23;;;5.63;;
13975;SDS011;7062;49.792;9.946;2022-07-23T05:36:07;7.83;;;5.70;;
13975;SDS011;7062;49.792;9.946;2022-07-23T05:38:33;6.50;;;5.87;;
13975;SDS011;7062;49.792;9.946;2022-07-23T05:40:58;9.37;;;5.70;;
13975;SDS011;7062;49.792;9.946;2022-07-23T05:43:24;6.70;;;6.10;;
13975;SDS011;7062;49.792;9.946;2022-07-23T05:45:50;6.60;;;5.87;;
13975;SDS011;7062;49.792;9.946;2022-07-23T05:48:16;7.33;;;6.60;;
13975;SDS011;7062;49.792;9.946;2022-07-23T05:50:41;6.83;;;6.33;;
13975;SDS011;7062;49.792;9.946;2022-07-23T05:53:07;7.57;;;6.97;;
13975;SDS011;7062;49.792;9.946;2022-07-23T05:55:33;8.67;;;7.87;;
13975;SDS011;7062;49.792;9.946;2022-07-23T05:57:59;8.37;;;7.57;;
13975;SDS011;7062;49.792;9.946;2022-07-23T06:00:24;9.23;;;8.00;;
13975;SDS011;7062;49.792;9.946;2022-07-23T06:02:52;9.60;;;8.60;;
13975;SDS011;7062;49.792;9.946;2022-07-23T06:05:18;11.77;;;8.03;;
13975;SDS011;7062;49.792;9.946;2022-07-23T06:07:44;8.50;;;7.60;;
13975;SDS011;7062;49.792;9.946;2022-07-23T06:10:09;9.67;;;8.43;;
13975;SDS011;7062;49.792;9.946;2022-07-23T06:12:35;10.10;;;9.10;;
13975;SDS011;7062;49.792;9.946;2022-07-23T06:15:02;9.90;;;7.90;;
13975;SDS011;7062;49.792;9.946;2022-07-23T06:17:28;9.10;;;8.30;;
13975;SDS011;7062;49.792;9.946;2022-07-23T06:19:54;9.70;;;8.80;;
13975;SDS011;7062;49.792;9.946;2022-07-23T06:22:20;9.27;;;8.40;;
13975;SDS011;7062;49.792;9.946;2022-07-23T06:24:47;10.40;;;9.50;;
13975;SDS011;7062;49.792;9.946;2022-07-23T06:27:13;9.77;;;8.93;;
13975;SDS011;7062;49.792;9.946;2022-07-23T06:29:38;10.40;;;9.43;;
13975;SDS011;7062;49.792;9.946;2022-07-23T06:32:05;10.50;;;9.40;;
13975;SDS011;7062;49.792;9.946;2022-07-23T06:34:32;10.60;;;9.40;;
13975;SDS011;7062;49.792;9.946;2022-07-23T06:36:58;10.37;;;9.03;;
13975;SDS011;7062;49.792;9.946;2022-07-23T06:39:23;11.07;;;9.97;;
13975;SDS011;7062;49.792;9.946;2022-07-23T06:41:49;10.00;;;9.10;;
13975;SDS011;7062;49.792;9.946;2022-07-23T06:44:15;10.90;;;9.30;;
13975;SDS011;7062;49.792;9.946;2022-07-23T06:46:41;10.50;;;9.40;;
13975;SDS011;7062;49.792;9.946;2022-07-23T06:49:06;9.93;;;8.60;;
13975;SDS011;7062;49.792;9.946;2022-07-23T06:51:32;9.30;;;8.60;;
13975;SDS011;7062;49.792;9.946;2022-07-23T06:53:58;9.53;;;8.63;;
13975;SDS011;7062;49.792;9.946;2022-07-23T06:56:23;13.53;;;9.47;;
13975;SDS011;7062;49.792;9.946;2022-07-23T06:58:49;9.13;;;8.37;;
13975;SDS011;7062;49.792;9.946;2022-07-23T07:01:15;9.30;;;8.40;;
13975;SDS011;7062;49.792;9.946;2022-07-23T07:03:40;9.47;;;8.47;;
13975;SDS011;7062;49.792;9.946;2022-07-23T07:06:06;10.37;;;8.43;;
13975;SDS011;7062;49.792;9.946;2022-07-23T07:08:32;8.63;;;7.83;;
13975;SDS011;7062;49.792;9.946;2022-07-23T07:10:57;9.47;;;8.60;;
13975;SDS011;7062;49.792;9.946;2022-07-23T07:13:23;9.30;;;8.40;;
13975;SDS011;7062;49.792;9.946;2022-07-23T07:15:48;12.00;;;8.90;;
13975;SDS011;7062;49.792;9.946;2022-07-23T07:18:14;10.17;;;8.20;;
13975;SDS011;7062;49.792;9.946;2022-07-23T07:20:40;8.53;;;7.83;;
13975;SDS011;7062;49.792;9.946;2022-07-23T07:23:05;12.67;;;7.73;;
13975;SDS011;7062;49.792;9.946;2022-07-23T07:25:31;11.73;;;9.27;;
13975;SDS011;7062;49.792;9.946;2022-07-23T07:27:56;9.77;;;8.77;;
13975;SDS011;7062;49.792;9.946;2022-07-23T07:30:22;9.17;;;7.73;;
13975;SDS011;7062;49.792;9.946;2022-07-23T07:32:48;8.37;;;7.50;;
13975;SDS011;7062;49.792;9.946;2022-07-23T07:35:13;8.20;;;7.50;;
13975;SDS011;7062;49.792;9.946;2022-07-23T07:37:39;8.80;;;7.37;;
13975;SDS011;7062;49.792;9.946;2022-07-23T07:40:04;7.77;;;7.17;;
13975;SDS011;7062;49.792;9.946;2022-07-23T07:42:30;8.87;;;7.73;;
13975;SDS011;7062;49.792;9.946;2022-07-23T07:44:57;10.07;;;8.70;;
13975;SDS011;7062;49.792;9.946;2022-07-23T07:47:23;8.13;;;7.30;;
13975;SDS011;7062;49.792;9.946;2022-07-23T07:49:48;9.37;;;7.47;;
13975;SDS011;7062;49.792;9.946;2022-07-23T07:52:14;9.20;;;7.63;;
13975;SDS011;7062;49.792;9.946;2022-07-23T07:54:39;8.03;;;7.23;;
13975;SDS011;7062;49.792;9.946;2022-07-23T07:57:05;8.17;;;7.47;;
13975;SDS011;7062;49.792;9.946;2022-07-23T07:59:30;8.73;;;7.80;;
13975;SDS011;7062;49.792;9.946;2022-07-23T08:01:56;7.50;;;6.90;;
13975;SDS011;7062;49.792;9.946;2022-07-23T08:04:22;8.73;;;7.10;;
13975;SDS011;7062;49.792;9.946;2022-07-23T08:06:47;7.93;;;7.23;;
13975;SDS011;7062;49.792;9.946;2022-07-23T08:09:13;8.20;;;7.50;;
13975;SDS011;7062;49.792;9.946;2022-07-23T08:11:39;8.30;;;7.37;;
13975;SDS011;7062;49.792;9.946;2022-07-23T08:14:04;6.93;;;6.33;;
13975;SDS011;7062;49.792;9.946;2022-07-23T08:16:30;8.03;;;7.27;;
13975;SDS011;7062;49.792;9.946;2022-07-23T08:18:56;7.03;;;6.33;;
13975;SDS011;7062;49.792;9.946;2022-07-23T08:21:21;6.80;;;6.10;;
13975;SDS011;7062;49.792;9.946;2022-07-23T08:23:47;7.23;;;6.43;;
13975;SDS011;7062;49.792;9.946;2022-07-23T08:26:13;8.20;;;7.47;;
13975;SDS011;7062;49.792;9.946;2022-07-23T08:28:38;6.77;;;6.17;;
13975;SDS011;7062;49.792;9.946;2022-07-23T08:31:04;7.70;;;6.87;;
13975;SDS011;7062;49.792;9.946;2022-07-23T08:33:30;8.00;;;7.30;;
13975;SDS011;7062;49.792;9.946;2022-07-23T08:35:56;8.80;;;7.90;;
13975;SDS011;7062;49.792;9.946;2022-07-23T08:38:22;6.30;;;5.73;;
13975;SDS011;7062;49.792;9.946;2022-07-23T08:40:50;7.90;;;6.60;;
13975;SDS011;7062;49.792;9.946;2022-07-23T08:43:19;7.00;;;6.40;;
13975;SDS011;7062;49.792;9.946;2022-07-23T08:45:48;7.10;;;6.50;;
13975;SDS011;7062;49.792;9.946;2022-07-23T08:48:15;9.77;;;6.87;;
13975;SDS011;7062;49.792;9.946;2022-07-23T08:50:49;6.97;;;6.30;;
13975;SDS011;7062;49.792;9.946;2022-07-23T08:53:19;7.20;;;6.57;;
13975;SDS011;7062;49.792;9.946;2022-07-23T08:55:47;6.90;;;5.97;;
13975;SDS011;7062;49.792;9.946;2022-07-23T08:58:14;8.63;;;6.43;;
13975;SDS011;7062;49.792;9.946;2022-07-23T09:00:40;6.63;;;6.03;;
13975;SDS011;7062;49.792;9.946;2022-07-23T09:03:05;9.03;;;6.77;;
13975;SDS011;7062;49.792;9.946;2022-07-23T09:05:31;7.07;;;6.47;;
13975;SDS011;7062;49.792;9.946;2022-07-23T09:10:29;7.77;;;6.03;;
13975;SDS011;7062;49.792;9.946;2022-07-23T09:12:55;7.20;;;6.20;;
13975;SDS011;7062;49.792;9.946;2022-07-23T09:15:20;8.03;;;7.33;;
13975;SDS011;7062;49.792;9.946;2022-07-23T09:17:46;8.20;;;7.50;;
13975;SDS011;7062;49.792;9.946;2022-07-23T09:20:13;8.00;;;7.13;;
13975;SDS011;7062;49.792;9.946;2022-07-23T09:22:44;7.77;;;6.97;;
13975;SDS011;7062;49.792;9.946;2022-07-23T09:25:15;7.67;;;6.97;;
13975;SDS011;7062;49.792;9.946;2022-07-23T09:30:27;6.60;;;6.00;;
13975;SDS011;7062;49.792;9.946;2022-07-23T09:35:50;5.53;;;5.13;;
13975;SDS011;7062;49.792;9.946;2022-07-23T09:38:19;7.47;;;6.73;;
13975;SDS011;7062;49.792;9.946;2022-07-23T09:40:46;7.17;;;6.47;;
13975;SDS011;7062;49.792;9.946;2022-07-23T09:43:29;10.00;;;6.40;;
13975;SDS011;7062;49.792;9.946;2022-07-23T09:46:16;7.20;;;6.60;;
13975;SDS011;7062;49.792;9.946;2022-07-23T09:48:43;6.17;;;5.67;;
13975;SDS011;7062;49.792;9.946;2022-07-23T09:51:08;6.87;;;5.37;;
13975;SDS011;7062;49.792;9.946;2022-07-23T09:53:34;6.13;;;5.33;;
13975;SDS011;7062;49.792;9.946;2022-07-23T09:55:59;7.67;;;5.90;;
13975;SDS011;7062;49.792;9.946;2022-07-23T09:58:26;5.67;;;4.70;;
13975;SDS011;7062;49.792;9.946;2022-07-23T10:00:53;5.10;;;4.70;;
13975;SDS011;7062;49.792;9.946;2022-07-23T10:03:20;7.97;;;5.93;;
13975;SDS011;7062;49.792;9.946;2022-07-23T10:05:48;6.20;;;5.67;;
13975;SDS011;7062;49.792;9.946;2022-07-23T10:08:16;6.30;;;5.80;;
13975;SDS011;7062;49.792;9.946;2022-07-23T10:10:44;7.33;;;5.10;;
13975;SDS011;7062;49.792;9.946;2022-07-23T10:13:11;5.73;;;5.27;;
13975;SDS011;7062;49.792;9.946;2022-07-23T10:15:40;5.80;;;5.20;;
13975;SDS011;7062;49.792;9.946;2022-07-23T10:18:06;6.37;;;5.67;;
13975;SDS011;7062;49.792;9.946;2022-07-23T10:20:34;6.63;;;6.10;;
13975;SDS011;7062;49.792;9.946;2022-07-23T10:39:31;8.70;;;6.57;;
13975;SDS011;7062;49.792;9.946;2022-07-23T10:42:08;6.17;;;5.63;;
13975;SDS011;7062;49.792;9.946;2022-07-23T10:44:47;6.00;;;5.40;;
13975;SDS011;7062;49.792;9.946;2022-07-23T10:47:26;5.87;;;5.37;;
13975;SDS011;7062;49.792;9.946;2022-07-23T10:50:16;5.10;;;4.70;;
13975;SDS011;7062;49.792;9.946;2022-07-23T10:52:41;5.73;;;5.23;;
13975;SDS011;7062;49.792;9.946;2022-07-23T10:57:56;5.10;;;4.60;;
13975;SDS011;7062;49.792;9.946;2022-07-23T11:02:54;5.70;;;4.83;;
13975;SDS011;7062;49.792;9.946;2022-07-23T11:05:22;5.33;;;4.93;;
13975;SDS011;7062;49.792;9.946;2022-07-23T11:10:39;6.37;;;5.37;;
13975;SDS011;7062;49.792;9.946;2022-07-23T11:13:25;6.87;;;5.20;;
13975;SDS011;7062;49.792;9.946;2022-07-23T11:24:22;6.77;;;6.27;;
13975;SDS011;7062;49.792;9.946;2022-07-23T11:26:45;6.27;;;5.77;;
13975;SDS011;7062;49.792;9.946;2022-07-23T11:32:38;7.00;;;6.23;;
13975;SDS011;7062;49.792;9.946;2022-07-23T11:34:49;6.43;;;5.83;;
13975;SDS011;7062;49.792;9.946;2022-07-23T11:37:31;5.90;;;5.40;;
13975;SDS011;7062;49.792;9.946;2022-07-23T11:40:02;6.30;;;5.70;;
13975;SDS011;7062;49.792;9.946;2022-07-23T11:42:41;6.17;;;5.67;;
13975;SDS011;7062;49.792;9.946;2022-07-23T11:45:21;5.47;;;4.97;;
13975;SDS011;7062;49.792;9.946;2022-07-23T11:47:47;6.33;;;5.73;;
13975;SDS011;7062;49.792;9.946;2022-07-23T11:50:12;5.60;;;5.10;;
13975;SDS011;7062;49.792;9.946;2022-07-23T11:52:38;6.20;;;5.60;;
13975;SDS011;7062;49.792;9.946;2022-07-23T11:55:05;5.90;;;5.40;;
13975;SDS011;7062;49.792;9.946;2022-07-23T11:57:37;6.47;;;5.87;;
13975;SDS011;7062;49.792;9.946;2022-07-23T12:00:09;6.37;;;5.87;;
13975;SDS011;7062;49.792;9.946;2022-07-23T12:02:43;5.70;;;5.07;;
13975;SDS011;7062;49.792;9.946;2022-07-23T12:05:15;6.50;;;6.00;;
13975;SDS011;7062;49.792;9.946;2022-07-23T12:07:42;5.47;;;4.97;;
13975;SDS011;7062;49.792;9.946;2022-07-23T12:10:14;6.10;;;5.60;;
13975;SDS011;7062;49.792;9.946;2022-07-23T12:12:44;6.27;;;5.77;;
13975;SDS011;7062;49.792;9.946;2022-07-23T12:15:11;6.50;;;5.90;;
13975;SDS011;7062;49.792;9.946;2022-07-23T12:17:39;6.27;;;5.63;;
13975;SDS011;7062;49.792;9.946;2022-07-23T12:20:07;6.47;;;5.93;;
13975;SDS011;7062;49.792;9.946;2022-07-23T12:22:36;6.20;;;5.60;;
13975;SDS011;7062;49.792;9.946;2022-07-23T12:25:05;6.93;;;5.63;;
13975;SDS011;7062;49.792;9.946;2022-07-23T12:27:31;6.07;;;5.43;;
13975;SDS011;7062;49.792;9.946;2022-07-23T12:29:57;6.43;;;5.37;;
13975;SDS011;7062;49.792;9.946;2022-07-23T12:32:26;5.87;;;5.33;;
13975;SDS011;7062;49.792;9.946;2022-07-23T12:35:08;6.17;;;5.67;;
13975;SDS011;7062;49.792;9.946;2022-07-23T12:42:45;7.60;;;5.30;;
13975;SDS011;7062;49.792;9.946;2022-07-23T12:45:12;6.27;;;5.50;;
13975;SDS011;7062;49.792;9.946;2022-07-23T12:47:51;6.90;;;5.47;;
13975;SDS011;7062;49.792;9.946;2022-07-23T12:50:38;6.60;;;5.67;;
13975;SDS011;7062;49.792;9.946;2022-07-23T12:53:13;8.20;;;6.07;;
13975;SDS011;7062;49.792;9.946;2022-07-23T12:55:41;5.87;;;5.13;;
13975;SDS011;7062;49.792;9.946;2022-07-23T12:58:17;5.03;;;4.53;;
13975;SDS011;7062;49.792;9.946;2022-07-23T13:00:54;6.27;;;4.17;;
13975;SDS011;7062;49.792;9.946;2022-07-23T13:03:32;6.50;;;4.70;;
13975;SDS011;7062;49.792;9.946;2022-07-23T13:06:00;5.97;;;5.47;;
13975;SDS011;7062;49.792;9.946;2022-07-23T13:08:29;5.87;;;5.37;;
13975;SDS011;7062;49.792;9.946;2022-07-23T13:10:56;7.17;;;4.90;;
13975;SDS011;7062;49.792;9.946;2022-07-23T13:13:23;5.30;;;4.90;;
13975;SDS011;7062;49.792;9.946;2022-07-23T13:15:50;7.77;;;5.20;;
13975;SDS011;7062;49.792;9.946;2022-07-23T13:18:17;6.30;;;5.80;;
13975;SDS011;7062;49.792;9.946;2022-07-23T13:20:44;6.47;;;5.60;;
13975;SDS011;7062;49.792;9.946;2022-07-23T13:23:10;5.40;;;5.00;;
13975;SDS011;7062;49.792;9.946;2022-07-23T13:25:36;5.57;;;5.17;;
13975;SDS011;7062;49.792;9.946;2022-07-23T13:28:02;4.67;;;4.27;;
13975;SDS011;7062;49.792;9.946;2022-07-23T13:30:28;5.97;;;5.47;;
13975;SDS011;7062;49.792;9.946;2022-07-23T13:32:54;6.83;;;6.17;;
13975;SDS011;7062;49.792;9.946;2022-07-23T13:35:19;5.60;;;5.07;;
13975;SDS011;7062;49.792;9.946;2022-07-23T13:37:45;5.77;;;5.23;;
13975;SDS011;7062;49.792;9.946;2022-07-23T13:40:11;5.40;;;5.00;;
13975;SDS011;7062;49.792;9.946;2022-07-23T13:42:37;5.33;;;4.70;;
13975;SDS011;7062;49.792;9.946;2022-07-23T13:45:07;5.63;;;5.10;;
13975;SDS011;7062;49.792;9.946;2022-07-23T13:47:33;4.87;;;4.30;;
13975;SDS011;7062;49.792;9.946;2022-07-23T13:49:59;5.60;;;5.10;;
13975;SDS011;7062;49.792;9.946;2022-07-23T13:52:25;6.53;;;5.30;;
13975;SDS011;7062;49.792;9.946;2022-07-23T13:54:50;6.03;;;5.43;;
13975;SDS011;7062;49.792;9.946;2022-07-23T13:57:16;6.33;;;4.93;;
13975;SDS011;7062;49.792;9.946;2022-07-23T13:59:42;4.50;;;4.10;;
13975;SDS011;7062;49.792;9.946;2022-07-23T14:02:07;5.53;;;4.87;;
13975;SDS011;7062;49.792;9.946;2022-07-23T14:04:33;5.63;;;5.23;;
13975;SDS011;7062;49.792;9.946;2022-07-23T14:06:59;5.00;;;4.60;;
13975;SDS011;7062;49.792;9.946;2022-07-23T14:09:25;6.83;;;5.93;;
13975;SDS011;7062;49.792;9.946;2022-07-23T14:11:52;5.50;;;5.00;;
13975;SDS011;7062;49.792;9.946;2022-07-23T14:14:18;5.77;;;5.07;;
13975;SDS011;7062;49.792;9.946;2022-07-23T14:16:44;4.97;;;4.37;;
13975;SDS011;7062;49.792;9.946;2022-07-23T14:19:10;4.93;;;4.50;;
13975;SDS011;7062;49.792;9.946;2022-07-23T14:21:36;5.50;;;4.87;;
13975;SDS011;7062;49.792;9.946;2022-07-23T14:24:02;5.67;;;5.03;;
13975;SDS011;7062;49.792;9.946;2022-07-23T14:26:28;4.50;;;4.10;;
13975;SDS011;7062;49.792;9.946;2022-07-23T14:28:54;5.33;;;4.50;;
13975;SDS011;7062;49.792;9.946;2022-07-23T14:31:20;4.97;;;4.57;;
13975;SDS011;7062;49.792;9.946;2022-07-23T14:33:46;4.93;;;4.53;;
13975;SDS011;7062;49.792;9.946;2022-07-23T14:36:12;5.43;;;4.73;;
13975;SDS011;7062;49.792;9.946;2022-07-23T14:38:38;4.73;;;4.33;;
13975;SDS011;7062;49.792;9.946;2022-07-23T14:41:03;4.77;;;4.40;;
13975;SDS011;7062;49.792;9.946;2022-07-23T14:43:31;5.67;;;5.10;;
13975;SDS011;7062;49.792;9.946;2022-07-23T14:45:57;5.47;;;4.97;;
13975;SDS011;7062;49.792;9.946;2022-07-23T14:48:23;5.60;;;5.10;;
13975;SDS011;7062;49.792;9.946;2022-07-23T14:50:49;6.30;;;5.77;;
13975;SDS011;7062;49.792;9.946;2022-07-23T14:53:14;7.70;;;4.87;;
13975;SDS011;7062;49.792;9.946;2022-07-23T14:55:40;5.57;;;4.50;;
13975;SDS011;7062;49.792;9.946;2022-07-23T14:58:06;6.13;;;4.80;;
13975;SDS011;7062;49.792;9.946;2022-07-23T15:00:31;5.60;;;5.10;;
13975;SDS011;7062;49.792;9.946;2022-07-23T15:02:57;5.00;;;4.60;;
13975;SDS011;7062;49.792;9.946;2022-07-23T15:05:23;5.87;;;4.70;;
13975;SDS011;7062;49.792;9.946;2022-07-23T15:07:49;4.83;;;4.30;;
13975;SDS011;7062;49.792;9.946;2022-07-23T15:10:15;4.40;;;4.00;;
13975;SDS011;7062;49.792;9.946;2022-07-23T15:12:40;4.90;;;4.50;;
13975;SDS011;7062;49.792;9.946;2022-07-23T15:15:07;4.70;;;4.30;;
13975;SDS011;7062;49.792;9.946;2022-07-23T15:17:33;5.00;;;4.50;;
13975;SDS011;7062;49.792;9.946;2022-07-23T15:19:59;4.80;;;4.40;;
13975;SDS011;7062;49.792;9.946;2022-07-23T15:22:24;5.63;;;4.80;;
13975;SDS011;7062;49.792;9.946;2022-07-23T15:24:50;5.43;;;4.10;;
13975;SDS011;7062;49.792;9.946;2022-07-23T15:27:16;4.67;;;4.27;;
13975;SDS011;7062;49.792;9.946;2022-07-23T15:29:42;5.60;;;4.77;;
13975;SDS011;7062;49.792;9.946;2022-07-23T15:32:09;4.17;;;3.83;;
13975;SDS011;7062;49.792;9.946;2022-07-23T15:34:36;5.23;;;4.50;;
13975;SDS011;7062;49.792;9.946;2022-07-23T15:37:02;5.57;;;4.47;;
13975;SDS011;7062;49.792;9.946;2022-07-23T15:39:30;5.13;;;4.43;;
13975;SDS011;7062;49.792;9.946;2022-07-23T15:41:57;4.67;;;3.90;;
13975;SDS011;7062;49.792;9.946;2022-07-23T15:44:23;4.83;;;4.03;;
13975;SDS011;7062;49.792;9.946;2022-07-23T15:46:49;5.77;;;4.97;;